McClure, Pennsylvania
Current Conditions -  °F | °C
As of 9:53 PM on Saturday 20 Dec 2014 (Local Time) from KSEG Reporting Station
Overcast Overcast  
Wind Chill: 32°   Ceiling: 3000
Heat Index: 32°   Visibility: 10mi
Dew Point: 22°   Wind: 0mph
Humidity: 66%   Direction: NA
Pressure: 30.29"   Gusts: NA
Location:  40.71°N, 77.31°W
Report Text: KSEG 210253Z AUTO 00000KT 10SM OVC030 00/M06 A3029 RMK AO2 SLP263 T00001056 53001
Loading
Personal Weather Stations






























Interactive Weather Map New forecast layout! Learn more

10-Day Weather Forecast

Advertisements
Track Severe Weather on mobile